METAR Data
IDs: Format: Raw Decoded Include TAF

Data at: 0721 UTC 03 Aug 2021

KCIC 030715Z AUTO 06003KT 10SM CLR 25/05 A2997 RMK AO1
KCIC 030655Z AUTO 08004KT 10SM CLR 25/05 A2997 RMK AO1
KCIC 030635Z AUTO 06006KT 10SM CLR 27/05 A2997 RMK AO1
KCIC 030615Z AUTO 05007KT 10SM CLR 27/05 A2997 RMK AO1
KCIC 030555Z AUTO 00000KT 10SM CLR 27/06 A2998 RMK AO1
KCIC 030535Z AUTO 05006KT 10SM CLR 27/06 A2998 RMK AO1
KCIC 030515Z AUTO 05006KT 10SM CLR 28/07 A2998 RMK AO1
KCIC 030455Z AUTO 05005KT 10SM CLR 28/07 A2997 RMK AO1
KCIC 030435Z AUTO 05005KT 10SM CLR 29/08 A2997 RMK AO1
KCIC 030415Z AUTO 00000KT 10SM CLR 30/10 A2997 RMK AO1
KCIC 030355Z AUTO 00000KT 10SM CLR 31/10 A2996 RMK AO1
KCIC 030335Z AUTO 00000KT 10SM CLR 31/10 A2996 RMK AO1
KCIC 030315Z AUTO 17003KT 10SM CLR 32/10 A2996 RMK AO1
KCIC 030200Z 19007KT 40SM BKN180 33/08 A2997
KCIC 030049Z 14008KT 25SM BKN180 34/08 A2997
KCIC 022347Z 16008KT 40SM BKN150 BKN250 33/09 A2999
KCIC 022251Z 16006KT 20SM BKN160 33/08 A3001
KCIC 022154Z 14008KT 25SM BKN170 32/04 A3003
KCIC 022057Z 19006KT 25SM FEW030 SCT180 30/07 A3005
KCIC 021957Z 18007KT 25SM SCT150 30/08 A3006
KCIC 021852Z 14007KT 25SM SCT020 SCT150 28/09 A3008 RMK FU SCT020
KCIC 021747Z VRB05KT 40SM SCT030 BKN200 25/10 A2009 RMK FU SCT030 FUHZ ALQDS
KCIC 021650Z 18005KT 25SM BKN150 24/09 A3009
KCIC 021552Z 13003KT 80SM SCT180 22/09 A3009
KCIC 021450Z 15007KT 80SM SCT180 20/08 A3009
KCIC 021357Z 13007KT 80SM FEW180 20/08 A3007
KCIC 021315Z AUTO 14006KT 10SM FEW040 20/08 A3006 RMK AO1
KCIC 021255Z AUTO 14007KT 10SM OVC040 20/08 A3005 RMK AO1
KCIC 021235Z AUTO 15004KT 10SM OVC038 20/08 A3005 RMK AO1
KCIC 021215Z AUTO 16006KT 10SM BKN038 20/08 A3004 RMK AO1
KCIC 021155Z AUTO 15006KT 10SM FEW038 20/08 A3003 RMK AO1
KCIC 021135Z AUTO 15007KT 10SM CLR 21/08 A3003 RMK AO1
KCIC 021115Z AUTO 13006KT 10SM CLR 22/09 A3002 RMK AO1
KCIC 021055Z AUTO 14008KT 10SM CLR 22/09 A3001 RMK AO1
KCIC 021035Z AUTO 16007KT 10SM CLR 22/09 A3001 RMK AO1
KCIC 021015Z AUTO 18007KT 10SM CLR 23/09 A3001 RMK AO1
KCIC 020955Z AUTO 17007KT 10SM CLR 24/09 A3000 RMK AO1
KCIC 020935Z AUTO 17010KT 10SM CLR 24/08 A3000 RMK AO1
KCIC 020915Z AUTO 15010KT 10SM CLR 24/08 A3000 RMK AO1
KCIC 020855Z AUTO 16011KT 10SM CLR 25/09 A2999 RMK AO1
KCIC 020835Z AUTO 17009KT 10SM CLR 25/08 A2999 RMK AO1
KCIC 020815Z AUTO 13006KT 10SM CLR 27/08 A2999 RMK AO1
KCIC 020755Z AUTO 15008KT 10SM CLR 27/08 A2999 RMK AO1
KCIC 020735Z AUTO 14009KT 10SM CLR 28/08 A2998 RMK AO1
KCIC 020715Z AUTO 15008KT 10SM CLR 28/08 A2998 RMK AO1
KCIC 020655Z AUTO 15010KT 10SM CLR 29/08 A2998 RMK AO1
KCIC 020635Z AUTO 13010KT 10SM CLR 30/08 A2998 RMK AO1
KCIC 020615Z AUTO 14011KT 10SM CLR 30/08 A2998 RMK AO1
KCIC 020555Z AUTO 14011KT 10SM CLR 30/08 A2997 RMK AO1
KCIC 020535Z AUTO 14013KT 10SM CLR 31/09 A2997 RMK AO1
KCIC 020515Z AUTO 14010KT 10SM CLR 32/12 A2997 RMK AO1
KCIC 020455Z AUTO 13008KT 10SM CLR 32/12 A2996 RMK AO1
KCIC 020435Z AUTO 12007KT 10SM CLR 33/11 A2994 RMK AO1
KCIC 020415Z AUTO 12008KT 10SM CLR 33/12 A2994 RMK AO1
KCIC 020355Z AUTO 12006KT 10SM CLR 33/13 A2993 RMK AO1
KCIC 020335Z AUTO 14007KT 10SM CLR 34/12 A2992 RMK AO1
KCIC 020315Z AUTO 15006KT 10SM CLR 35/12 A2992 RMK AO1
KCIC 012351Z 19005KT 10SM SCT180 38/05 A2992
KCIC 012255Z 00000KT 25SM SCT150 SCT200 37/07 A2994 RMK FUHZ ALQDS
KCIC 012155Z 16010KT 40SM SCT150 36/09 A2996 RMK FUHZ ALQDS
KCIC 012055Z 17010KT 10SM SCT130 35/08 A2998 RMK FUHZ ALQDS
KCIC 011952Z 21006KT 10SM SCT100 BKN200 33/10 A2999